createdAt,value
2023-02-26T00:04:35.553Z,2313.23077
2023-02-26T00:09:37.471Z,2313.23077
2023-02-26T00:14:39.294Z,2225.48148
2023-02-26T00:19:40.959Z,2144
2023-02-26T00:24:42.633Z,2144
2023-02-26T00:29:44.225Z,2068.13793
2023-02-26T00:34:45.971Z,1997.33333
2023-02-26T00:39:47.657Z,1997.33333
2023-02-26T00:44:49.316Z,1997.33333
2023-02-26T00:49:50.972Z,1931.09677
2023-02-26T00:54:52.793Z,1931.09677
2023-02-26T00:59:54.437Z,1869
2023-02-26T01:04:56.074Z,1997.33333
2023-02-26T01:09:57.674Z,1997.33333
2023-02-26T01:14:59.308Z,1997.33333
2023-02-26T01:20:01.009Z,1997.33333
2023-02-26T01:25:02.846Z,1997.33333
2023-02-26T01:30:04.554Z,1997.33333
2023-02-26T01:35:06.436Z,2068.13793
2023-02-26T01:40:08.063Z,2068.13793
2023-02-26T01:45:09.813Z,1997.33333
2023-02-26T01:50:11.526Z,2068.13793
2023-02-26T01:55:13.209Z,1869
2023-02-26T02:00:14.908Z,1869
2023-02-26T02:05:16.540Z,1869
2023-02-26T02:10:18.241Z,1869
2023-02-26T02:15:19.862Z,1931.09677
2023-02-26T02:20:21.487Z,1997.33333
2023-02-26T02:25:23.114Z,1997.33333
2023-02-26T02:30:24.731Z,1931.09677
2023-02-26T02:35:26.371Z,1997.33333
2023-02-26T02:40:28.030Z,1931.09677
2023-02-26T02:45:29.711Z,1869
2023-02-26T02:50:31.404Z,1931.09677
2023-02-26T02:55:33.083Z,1869
2023-02-26T03:00:34.711Z,1931.09677
2023-02-26T03:05:36.443Z,2068.13793
2023-02-26T03:10:38.368Z,1931.09677
2023-02-26T03:15:40.406Z,1931.09677
2023-02-26T03:20:42.102Z,1810.66667
2023-02-26T03:25:49.282Z,1810.66667
2023-02-26T03:30:50.929Z,1810.66667
2023-02-26T03:35:52.632Z,1810.66667
2023-02-26T03:40:54.319Z,1869
2023-02-26T03:45:55.996Z,1997.33333
2023-02-26T03:50:57.882Z,2068.13793
2023-02-26T03:55:59.526Z,2068.13793
2023-02-26T04:01:01.488Z,1997.33333
2023-02-26T04:06:03.100Z,1931.09677
2023-02-26T04:11:06.900Z,1997.33333
2023-02-26T04:16:08.542Z,1810.66667
2023-02-26T04:21:10.220Z,1810.66667
2023-02-26T04:26:11.856Z,1931.09677
2023-02-26T04:31:13.671Z,1931.09677
2023-02-26T04:36:15.345Z,1931.09677
2023-02-26T04:41:16.984Z,1931.09677
2023-02-26T04:46:18.685Z,1931.09677
2023-02-26T04:51:20.432Z,1869
2023-02-26T04:56:22.063Z,1869
2023-02-26T05:01:23.802Z,1755.76471
2023-02-26T05:06:25.831Z,1755.76471
2023-02-26T05:11:28.570Z,1755.76471
2023-02-26T05:16:30.509Z,1704
2023-02-26T05:21:32.257Z,1810.66667
2023-02-26T05:26:33.855Z,1810.66667
2023-02-26T05:31:35.568Z,1869
2023-02-26T05:36:37.174Z,1869
2023-02-26T05:41:38.934Z,1997.33333
2023-02-26T05:46:40.544Z,1931.09677
2023-02-26T05:51:42.259Z,1997.33333
2023-02-26T05:56:44.006Z,1997.33333
2023-02-26T06:01:45.670Z,1931.09677
2023-02-26T06:06:47.282Z,1931.09677
2023-02-26T06:11:48.920Z,1931.09677
2023-02-26T06:16:50.524Z,1810.66667
2023-02-26T06:21:52.184Z,1755.76471
2023-02-26T06:26:53.897Z,1869
2023-02-26T06:31:55.681Z,1869
2023-02-26T06:36:57.491Z,1869
2023-02-26T06:41:59.157Z,1931.09677
2023-02-26T06:47:00.820Z,1869
2023-02-26T06:52:02.425Z,1810.66667
2023-02-26T06:57:04.214Z,1810.66667
2023-02-26T07:02:05.855Z,1755.76471
2023-02-26T07:07:07.520Z,1755.76471
2023-02-26T07:12:09.182Z,1755.76471
2023-02-26T07:17:10.883Z,1869
2023-02-26T07:22:12.693Z,1997.33333
2023-02-26T07:27:14.294Z,1931.09677
2023-02-26T07:32:16.011Z,1997.33333
2023-02-26T07:37:17.641Z,1869
2023-02-26T07:42:19.257Z,1869
2023-02-26T07:47:20.952Z,1810.66667
2023-02-26T07:52:22.540Z,1810.66667
2023-02-26T07:57:24.128Z,1810.66667
2023-02-26T08:02:25.777Z,1810.66667
2023-02-26T08:07:27.440Z,1810.66667
2023-02-26T08:12:29.316Z,1869
2023-02-26T08:17:30.989Z,1810.66667
2023-02-26T08:22:32.659Z,1755.76471
2023-02-26T08:27:34.282Z,1755.76471
2023-02-26T08:37:36.250Z,1810.66667
2023-02-26T08:42:37.925Z,1869
2023-02-26T08:47:48.711Z,1931.09677
2023-02-26T08:52:57.053Z,1869
2023-02-26T08:57:58.615Z,1869
2023-02-26T09:03:00.401Z,1810.66667
2023-02-26T09:08:02.235Z,1869
2023-02-26T09:13:03.865Z,1869
2023-02-26T09:18:05.541Z,1810.66667
2023-02-26T09:23:07.182Z,1810.66667
2023-02-26T09:28:09.093Z,1810.66667
2023-02-26T09:33:10.743Z,1755.76471
2023-02-26T09:38:12.463Z,1810.66667
2023-02-26T09:43:14.200Z,1810.66667
2023-02-26T09:48:15.786Z,1810.66667
2023-02-26T09:53:17.429Z,1810.66667
2023-02-26T09:58:19.172Z,1869
2023-02-26T10:03:20.850Z,1810.66667
2023-02-26T10:08:22.465Z,1810.66667
2023-02-26T10:13:24.063Z,1755.76471
2023-02-26T10:18:25.743Z,1704
2023-02-26T10:23:27.337Z,1655.11111
2023-02-26T10:28:29.044Z,1704
2023-02-26T10:33:30.641Z,1810.66667
2023-02-26T10:38:32.362Z,1755.76471
2023-02-26T10:43:33.967Z,1869
2023-02-26T10:48:35.613Z,1810.66667
2023-02-26T10:53:39.234Z,1704
2023-02-26T10:58:42.230Z,1655.11111
2023-02-26T11:03:43.936Z,1655.11111
2023-02-26T11:08:45.606Z,1608.86486
2023-02-26T11:13:47.237Z,1608.86486
2023-02-26T11:18:48.887Z,1655.11111
2023-02-26T11:23:50.522Z,1655.11111
2023-02-26T11:28:52.211Z,1704
2023-02-26T11:33:53.820Z,1704
2023-02-26T11:38:55.515Z,1655.11111
2023-02-26T11:43:57.226Z,1655.11111
2023-02-26T11:48:58.922Z,1655.11111
2023-02-26T11:54:00.845Z,1565.05263
2023-02-26T11:59:02.931Z,1608.86486
2023-02-26T12:04:04.719Z,1608.86486
2023-02-26T12:09:06.395Z,1565.05263
2023-02-26T12:14:08.299Z,1523.48718
2023-02-26T12:19:09.924Z,1608.86486
2023-02-26T12:24:11.558Z,1608.86486
2023-02-26T12:29:13.318Z,1565.05263
2023-02-26T12:34:14.946Z,1446.43902
2023-02-26T12:39:16.549Z,1410.66667
2023-02-26T12:44:18.303Z,1484
2023-02-26T12:49:19.920Z,1484
2023-02-26T12:54:21.522Z,1484
2023-02-26T12:59:23.245Z,1608.86486
2023-02-26T13:04:25.003Z,1565.05263
2023-02-26T13:09:26.754Z,1523.48718
2023-02-26T13:14:28.501Z,1655.11111
2023-02-26T13:19:30.252Z,1608.86486
2023-02-26T13:24:31.913Z,1565.05263
2023-02-26T13:29:33.610Z,1283.13043
2023-02-26T13:34:35.206Z,1344
2023-02-26T13:39:36.841Z,1376.55814
2023-02-26T13:44:38.645Z,1410.66667
2023-02-26T13:49:40.379Z,1484
2023-02-26T13:54:42.045Z,1410.66667
2023-02-26T13:59:43.723Z,1523.48718
2023-02-26T14:04:45.356Z,1523.48718
2023-02-26T14:09:47.054Z,1484
2023-02-26T14:14:48.730Z,1376.55814
2023-02-26T14:19:50.376Z,1344
2023-02-26T14:24:52.057Z,1410.66667
2023-02-26T14:29:53.800Z,1376.55814
2023-02-26T14:34:55.471Z,1344
2023-02-26T14:39:57.112Z,1344
2023-02-26T14:44:58.887Z,1410.66667
2023-02-26T14:50:00.656Z,1376.55814
2023-02-26T14:55:02.354Z,1344
2023-02-26T15:00:04.075Z,1484
2023-02-26T15:05:05.783Z,1376.55814
2023-02-26T15:10:07.476Z,1410.66667
2023-02-26T15:15:09.209Z,1312.88889
2023-02-26T15:20:10.842Z,1283.13043
2023-02-26T15:25:12.472Z,1344
2023-02-26T15:30:14.251Z,1283.13043
2023-02-26T15:35:16.025Z,1312.88889
2023-02-26T15:40:17.645Z,1283.13043
2023-02-26T15:45:19.378Z,1176
2023-02-26T15:50:21.137Z,1227.33333
2023-02-26T15:55:23.139Z,1227.33333
2023-02-26T16:00:24.882Z,1106.26415
2023-02-26T16:05:26.509Z,1064
2023-02-26T16:10:28.208Z,1151.84314
2023-02-26T16:15:30.123Z,1151.84314
2023-02-26T16:20:31.703Z,1176
2023-02-26T16:25:33.340Z,1201.14286
2023-02-26T16:30:35.063Z,1176
2023-02-26T16:35:36.721Z,1128.61538
2023-02-26T16:45:40.210Z,1176
2023-02-26T16:50:41.864Z,1084.74074
2023-02-26T16:55:43.490Z,1106.26415
2023-02-26T17:00:45.251Z,1106.26415
2023-02-26T17:05:47.002Z,824
2023-02-26T17:10:48.661Z,457.33333
2023-02-26T17:15:50.407Z,704.49383
2023-02-26T17:20:52.149Z,849.88235
2023-02-26T17:25:54.968Z,937.54839
2023-02-26T17:30:56.701Z,953.83607
2023-02-26T17:35:58.348Z,849.88235
2023-02-26T17:40:59.996Z,970.66667
2023-02-26T17:46:01.932Z,1064
2023-02-26T17:51:03.546Z,1128.61538
2023-02-26T17:56:05.196Z,1176
2023-02-26T18:01:06.942Z,1254.6383
2023-02-26T18:06:08.576Z,1283.13043
2023-02-26T18:11:10.189Z,1254.6383
2023-02-26T18:16:11.870Z,1283.13043
2023-02-26T18:21:13.396Z,1312.88889
2023-02-26T18:26:15.047Z,1312.88889
2023-02-26T18:31:19.018Z,1376.55814
2023-02-26T18:36:21.497Z,1376.55814
2023-02-26T18:41:23.307Z,1410.66667
2023-02-26T18:46:25.246Z,1446.43902
2023-02-26T18:51:27.378Z,1446.43902
2023-02-26T18:56:29.254Z,1446.43902
2023-02-26T19:01:31.364Z,1376.55814
2023-02-26T19:06:33.358Z,1446.43902
2023-02-26T19:11:35.034Z,1344
2023-02-26T19:16:36.774Z,1312.88889
2023-02-26T19:21:38.522Z,1344
2023-02-26T19:26:40.174Z,1283.13043
2023-02-26T19:31:42.087Z,1312.88889
2023-02-26T19:36:43.778Z,1283.13043
2023-02-26T19:41:45.537Z,1254.6383
2023-02-26T19:46:47.249Z,1312.88889
2023-02-26T19:51:48.853Z,1608.86486
2023-02-26T19:56:50.474Z,1655.11111
2023-02-26T20:01:52.367Z,1655.11111
2023-02-26T20:06:54.004Z,1565.05263
2023-02-26T20:11:55.593Z,1565.05263
2023-02-26T20:16:57.448Z,1608.86486
2023-02-26T20:21:59.239Z,1704
2023-02-26T20:27:00.877Z,1810.66667
2023-02-26T20:32:02.899Z,1704
2023-02-26T20:37:04.903Z,1869
2023-02-26T20:42:06.540Z,1755.76471
2023-02-26T20:47:08.316Z,1608.86486
2023-02-26T20:52:10.201Z,1608.86486
2023-02-26T20:57:11.866Z,1608.86486
2023-02-26T21:02:13.648Z,1655.11111
2023-02-26T21:07:15.532Z,1655.11111
2023-02-26T21:12:17.224Z,1608.86486
2023-02-26T21:17:19.004Z,1608.86486
2023-02-26T21:22:20.730Z,1704
2023-02-26T21:27:22.367Z,1608.86486
2023-02-26T21:32:24.095Z,1608.86486
2023-02-26T21:37:25.761Z,1704
2023-02-26T21:42:27.372Z,1704
2023-02-26T21:47:29.346Z,1704
2023-02-26T21:52:31.542Z,1704
2023-02-26T21:57:33.181Z,1655.11111
2023-02-26T22:02:34.872Z,1810.66667
2023-02-26T22:07:36.647Z,1810.66667
2023-02-26T22:12:38.303Z,1869
2023-02-26T22:17:40.277Z,1810.66667
2023-02-26T22:22:41.876Z,1704
2023-02-26T22:27:43.540Z,1608.86486
2023-02-26T22:32:45.530Z,1655.11111
2023-02-26T22:37:47.215Z,1608.86486
2023-02-26T22:42:48.878Z,1565.05263
2023-02-26T22:47:50.761Z,1608.86486
2023-02-26T22:52:52.420Z,1608.86486
2023-02-26T22:57:54.110Z,1608.86486
2023-02-26T23:02:55.857Z,1608.86486
2023-02-26T23:07:57.453Z,1655.11111
2023-02-26T23:12:59.080Z,1608.86486
2023-02-26T23:18:00.916Z,1608.86486
2023-02-26T23:23:02.616Z,1608.86486
2023-02-26T23:28:04.365Z,1704
2023-02-26T23:33:06.081Z,1655.11111
2023-02-26T23:38:07.744Z,1755.76471
2023-02-26T23:43:09.440Z,1704
2023-02-26T23:48:11.154Z,1704
2023-02-26T23:53:12.835Z,1704
2023-02-26T23:58:14.525Z,1755.76471
